Time;durP1;ratioP1;P1;durP2;ratioP2;P2;SDS_P1;SDS_P2;PMS_P1;PMS_P2;Temp;Humidity;BMP_temperature;BMP_pressure;BME280_temperature;BME280_humidity;BME280_pressure;Samples;Min_cycle;Max_cycle;Signal;HPM_P1;HPM_P2
2022/06/16 00:01:19;;;;;;;3.75;3.40;;;22.30;99.90;;;;;;4943911;29;20783;-77
2022/06/16 00:03:46;;;;;;;3.67;3.38;;;22.30;99.90;;;;;;4969348;28;20225;-76
2022/06/16 00:06:15;;;;;;;3.83;3.53;;;22.30;99.90;;;;;;4981414;28;20253;-76
2022/06/16 00:08:42;;;;;;;6.30;4.22;;;22.30;99.90;;;;;;4955381;29;20289;-76
2022/06/16 00:11:19;;;;;;;4.25;3.28;;;22.30;99.90;;;;;;4954261;29;20321;-76
2022/06/16 00:13:48;;;;;;;4.15;3.55;;;22.30;99.90;;;;;;4955032;29;20257;-76
2022/06/16 00:16:16;;;;;;;4.13;3.55;;;22.30;99.90;;;;;;4953926;29;20230;-76
2022/06/16 00:18:44;;;;;;;3.80;3.38;;;22.20;99.90;;;;;;4948774;29;20198;-76
2022/06/16 00:21:13;;;;;;;3.65;3.35;;;22.20;99.90;;;;;;4958857;28;20225;-77
2022/06/16 00:23:42;;;;;;;3.95;3.65;;;22.20;99.90;;;;;;4947429;28;20301;-76
2022/06/16 00:26:13;;;;;;;3.22;3.03;;;22.20;99.90;;;;;;4954202;29;20724;-77
2022/06/16 00:28:41;;;;;;;3.92;3.63;;;22.20;99.90;;;;;;4943619;29;20248;-76
2022/06/16 00:31:12;;;;;;;3.92;3.55;;;22.20;99.90;;;;;;4954199;29;20226;-76
2022/06/16 00:33:39;;;;;;;3.53;3.30;;;22.20;99.90;;;;;;4958660;28;20571;-76
2022/06/16 00:36:08;;;;;;;3.50;3.30;;;22.20;99.90;;;;;;4954204;29;20226;-76
2022/06/16 00:38:36;;;;;;;3.28;3.08;;;22.10;99.90;;;;;;4955182;29;20203;-76
2022/06/16 00:41:04;;;;;;;3.13;2.92;;;22.10;99.90;;;;;;4954211;28;20233;-76
2022/06/16 00:43:32;;;;;;;3.65;3.35;;;22.00;99.90;;;;;;4952820;28;20584;-74
2022/06/16 00:46:02;;;;;;;5.28;3.40;;;22.00;99.90;;;;;;4939692;29;20230;-76
2022/06/16 00:48:33;;;;;;;3.60;3.30;;;22.00;99.90;;;;;;4945879;29;20193;-77
2022/06/16 00:51:05;;;;;;;3.70;3.40;;;22.00;99.90;;;;;;4954129;29;20222;-76
2022/06/16 00:53:33;;;;;;;3.67;3.38;;;21.90;99.90;;;;;;4955302;28;20219;-76
2022/06/16 00:56:01;;;;;;;3.85;3.55;;;21.90;99.90;;;;;;4961155;29;20278;-76
2022/06/16 00:58:31;;;;;;;3.42;3.22;;;21.90;99.90;;;;;;4961865;29;20270;-76
2022/06/16 01:00:58;;;;;;;4.00;3.70;;;21.90;99.90;;;;;;4948316;29;20223;-75
2022/06/16 01:06:19;;;;;;;3.50;3.30;;;21.90;99.90;;;;;;4954446;29;20248;-75
2022/06/16 01:08:49;;;;;;;3.00;2.80;;;21.80;99.90;;;;;;4943884;29;20182;-77
2022/06/16 01:14:18;;;;;;;3.92;3.63;;;21.80;99.90;;;;;;4952623;28;20222;-76
2022/06/16 01:17:18;;;;;;;3.80;3.42;;;21.80;99.90;;;;;;4957782;29;20210;-76
2022/06/16 01:20:38;;;;;;;3.45;3.25;;;21.80;99.90;;;;;;4952046;28;20221;-76
2022/06/16 01:31:14;;;;;;;3.90;3.60;;;21.80;99.90;;;;;;4911861;29;20209;-78
2022/06/16 01:38:35;;;;;;;3.78;3.47;;;21.70;99.90;;;;;;4937505;29;20194;-78
2022/06/16 01:45:47;;;;;;;3.88;3.58;;;21.70;99.90;;;;;;4941816;29;20674;-76
2022/06/16 01:49:13;;;;;;;4.18;3.88;;;21.70;99.90;;;;;;4884519;29;20226;-77
2022/06/16 01:55:31;;;;;;;4.18;3.88;;;21.60;99.90;;;;;;4957089;28;20274;-76
2022/06/16 01:59:26;;;;;;;4.43;4.03;;;21.60;99.90;;;;;;4959424;28;20237;-76
2022/06/16 02:09:06;;;;;;;4.03;3.72;;;20.80;99.90;;;;;;4929838;29;20260;-76
2022/06/16 02:15:53;;;;;;;3.95;3.65;;;20.50;99.90;;;;;;4959590;28;20212;-76
2022/06/16 02:19:05;;;;;;;4.13;3.45;;;20.40;99.90;;;;;;4957533;29;20213;-76
2022/06/16 02:21:56;;;;;;;4.00;3.70;;;20.30;99.90;;;;;;4948255;29;20281;-76
2022/06/16 02:27:31;;;;;;;3.33;3.13;;;20.20;99.90;;;;;;4990476;23;20368;-71
2022/06/16 02:29:58;;;;;;;4.05;3.47;;;20.20;99.90;;;;;;4985489;28;20235;-71
2022/06/16 02:32:37;;;;;;;4.07;3.78;;;20.20;99.90;;;;;;4999550;28;20215;-70
2022/06/16 02:35:14;;;;;;;3.85;3.55;;;20.10;99.90;;;;;;4984940;28;20224;-71
2022/06/16 02:38:01;;;;;;;3.78;3.47;;;20.10;99.90;;;;;;4974085;28;20641;-71
2022/06/16 02:40:40;;;;;;;3.75;3.45;;;20.10;99.90;;;;;;4968326;28;20217;-70
2022/06/16 02:43:20;;;;;;;3.60;3.38;;;20.10;99.90;;;;;;4970359;28;20212;-71
2022/06/16 02:45:56;;;;;;;3.90;3.55;;;20.10;99.90;;;;;;4965954;28;20231;-71
2022/06/16 02:48:29;;;;;;;3.70;3.40;;;20.00;99.90;;;;;;4966929;28;20224;-70
2022/06/16 02:51:04;;;;;;;4.40;3.97;;;20.00;99.90;;;;;;4963897;28;20221;-70
2022/06/16 02:53:40;;;;;;;3.90;3.50;;;20.00;99.90;;;;;;4964746;28;20201;-71
2022/06/16 02:56:13;;;;;;;3.70;3.40;;;20.00;99.90;;;;;;4962568;28;20316;-70
2022/06/16 02:58:44;;;;;;;3.60;3.40;;;19.90;99.90;;;;;;4967410;28;20198;-70
2022/06/16 03:01:12;;;;;;;3.33;3.13;;;19.90;99.90;;;;;;4968083;28;20724;-71
2022/06/16 03:03:40;;;;;;;3.72;3.42;;;19.90;99.90;;;;;;4966163;28;20213;-71
2022/06/16 03:06:07;;;;;;;3.53;3.33;;;19.90;99.90;;;;;;4965684;28;20221;-71
2022/06/16 03:08:41;;;;;;;3.90;3.60;;;19.90;99.90;;;;;;4970409;28;20225;-71
2022/06/16 03:11:08;;;;;;;3.80;3.50;;;19.90;99.90;;;;;;4964741;28;20771;-70
2022/06/16 03:13:36;;;;;;;4.35;4.00;;;19.90;99.90;;;;;;4965978;28;20263;-71
2022/06/16 03:16:04;;;;;;;3.90;3.60;;;19.80;99.90;;;;;;4972978;28;20217;-71
2022/06/16 03:18:31;;;;;;;4.00;3.70;;;19.80;99.90;;;;;;4973930;28;20720;-71
2022/06/16 03:20:58;;;;;;;3.63;3.42;;;19.80;99.90;;;;;;4965139;28;20225;-71
2022/06/16 03:23:25;;;;;;;3.60;3.40;;;19.80;99.90;;;;;;4964338;28;20290;-70
2022/06/16 03:25:54;;;;;;;3.65;3.45;;;19.70;99.90;;;;;;4963678;28;20225;-71
2022/06/16 03:28:21;;;;;;;3.80;3.60;;;19.70;99.90;;;;;;4965685;28;20229;-71
2022/06/16 03:30:48;;;;;;;3.60;3.40;;;19.70;99.90;;;;;;4966247;28;20596;-71
2022/06/16 03:33:15;;;;;;;4.10;3.80;;;19.70;99.90;;;;;;4966643;28;20197;-71
2022/06/16 03:35:44;;;;;;;4.03;3.72;;;19.70;99.90;;;;;;4964945;28;20233;-71
2022/06/16 03:38:14;;;;;;;4.22;3.83;;;19.70;99.90;;;;;;4965900;28;20610;-70
2022/06/16 03:40:41;;;;;;;4.22;3.92;;;19.70;99.90;;;;;;4964650;28;20312;-70
2022/06/16 03:43:10;;;;;;;4.03;3.72;;;19.70;99.90;;;;;;4967197;28;20204;-70
2022/06/16 03:45:38;;;;;;;3.80;3.60;;;19.70;99.90;;;;;;4966358;28;20221;-71
2022/06/16 03:48:06;;;;;;;4.38;4.00;;;19.70;99.90;;;;;;4966800;28;20229;-71
2022/06/16 03:50:34;;;;;;;4.65;4.25;;;19.70;99.90;;;;;;4964378;28;20244;-71
2022/06/16 03:53:01;;;;;;;4.22;3.92;;;19.80;99.90;;;;;;4964986;28;20201;-71
2022/06/16 03:55:28;;;;;;;3.78;3.47;;;19.80;99.90;;;;;;4965339;28;20719;-71
2022/06/16 03:57:55;;;;;;;4.30;3.90;;;19.80;99.90;;;;;;4966727;28;20234;-70
2022/06/16 04:00:24;;;;;;;4.18;3.88;;;19.80;99.90;;;;;;4960823;28;20237;-70
2022/06/16 04:03:59;;;;;;;4.35;3.97;;;19.80;99.90;;;;;;4980038;28;20635;-71
2022/06/16 04:05:39;;;;;;;3.83;3.63;;;19.80;99.90;;;;;;4963532;28;20231;-70
2022/06/16 04:08:06;;;;;;;4.47;4.18;;;19.80;99.90;;;;;;4966039;28;20689;-71
2022/06/16 04:10:34;;;;;;;4.72;4.32;;;19.90;99.90;;;;;;4967748;28;20221;-71
2022/06/16 04:13:01;;;;;;;4.13;3.70;;;20.00;99.90;;;;;;4965659;28;20201;-71
2022/06/16 04:15:30;;;;;;;3.92;3.63;;;20.00;99.90;;;;;;4968929;28;20221;-70
2022/06/16 04:17:57;;;;;;;3.85;3.65;;;20.10;99.90;;;;;;4968478;28;20210;-71
2022/06/16 04:20:24;;;;;;;4.10;3.80;;;20.20;99.90;;;;;;4964544;28;20625;-71
2022/06/16 04:22:52;;;;;;;4.07;3.83;;;20.20;99.90;;;;;;4965295;28;20209;-71
2022/06/16 04:25:23;;;;;;;4.30;4.00;;;20.30;99.90;;;;;;4964633;28;20226;-71
2022/06/16 04:27:50;;;;;;;4.18;3.60;;;20.40;99.90;;;;;;4964696;28;20222;-70
2022/06/16 04:30:18;;;;;;;3.70;3.50;;;20.40;99.90;;;;;;4965957;28;20605;-71
2022/06/16 04:32:47;;;;;;;4.72;4.25;;;20.50;99.90;;;;;;4966290;28;20242;-71
2022/06/16 04:35:14;;;;;;;4.40;4.13;;;20.50;99.90;;;;;;4966231;28;20236;-70
2022/06/16 04:37:41;;;;;;;4.10;3.80;;;20.50;99.90;;;;;;4965544;28;20221;-71
2022/06/16 04:40:11;;;;;;;5.20;4.32;;;20.50;99.90;;;;;;4966896;28;20237;-71
2022/06/16 04:42:38;;;;;;;6.13;4.00;;;20.60;99.90;;;;;;4971051;28;20198;-71
2022/06/16 04:45:06;;;;;;;4.40;4.10;;;20.70;99.90;;;;;;4970217;28;20245;-70
2022/06/16 04:47:33;;;;;;;4.50;4.10;;;20.80;99.90;;;;;;4980160;28;20229;-71
2022/06/16 04:50:01;;;;;;;5.82;5.22;;;20.90;99.90;;;;;;4978039;28;20233;-70
2022/06/16 04:52:28;;;;;;;4.50;4.20;;;20.90;99.90;;;;;;4968533;28;20744;-71
2022/06/16 04:54:55;;;;;;;5.55;5.15;;;21.00;99.90;;;;;;4969773;28;20226;-70
2022/06/16 04:57:23;;;;;;;4.78;4.47;;;21.10;99.90;;;;;;4969517;28;20221;-70
2022/06/16 04:59:51;;;;;;;6.15;4.50;;;21.20;99.90;;;;;;4967878;28;20206;-71
2022/06/16 05:02:18;;;;;;;5.13;4.72;;;21.30;99.90;;;;;;4971744;28;20201;-70
2022/06/16 05:04:45;;;;;;;6.05;5.10;;;21.30;99.90;;;;;;4968006;28;20428;-71
2022/06/16 05:07:13;;;;;;;5.75;5.35;;;21.40;99.90;;;;;;4967344;28;20229;-70
2022/06/16 05:09:40;;;;;;;5.88;5.38;;;21.50;99.90;;;;;;4972617;28;20695;-71
2022/06/16 05:12:10;;;;;;;6.10;5.60;;;21.50;99.90;;;;;;4970718;28;20683;-71
2022/06/16 05:14:38;;;;;;;6.85;5.50;;;21.50;99.90;;;;;;4970039;28;20206;-71
2022/06/16 05:17:06;;;;;;;6.88;6.38;;;21.60;99.90;;;;;;4967945;28;20732;-71
2022/06/16 05:19:34;;;;;;;5.90;5.50;;;21.70;99.90;;;;;;4971992;28;20201;-71
2022/06/16 05:22:02;;;;;;;7.38;6.75;;;21.70;99.90;;;;;;4970686;28;21653;-71
2022/06/16 05:24:30;;;;;;;6.95;6.45;;;21.80;99.90;;;;;;4970974;28;20213;-71
2022/06/16 05:26:57;;;;;;;6.30;5.78;;;22.00;99.90;;;;;;4968108;28;20242;-71
2022/06/16 05:29:24;;;;;;;5.65;5.25;;;21.90;99.90;;;;;;4967668;28;20205;-70
2022/06/16 05:31:52;;;;;;;5.93;5.50;;;22.00;99.90;;;;;;4967854;28;20766;-70
2022/06/16 05:34:19;;;;;;;5.68;5.18;;;22.10;99.90;;;;;;4977492;28;20210;-70
2022/06/16 05:36:47;;;;;;;6.90;6.32;;;22.20;99.90;;;;;;4967674;28;20228;-72
2022/06/16 05:39:14;;;;;;;7.57;6.75;;;22.30;99.90;;;;;;4969004;28;20646;-72
2022/06/16 05:41:43;;;;;;;6.28;5.70;;;22.30;99.90;;;;;;4970916;28;20248;-72
2022/06/16 05:44:10;;;;;;;6.55;5.88;;;22.30;99.90;;;;;;4972912;28;20205;-72
2022/06/16 05:46:40;;;;;;;6.15;5.65;;;22.40;99.90;;;;;;4971123;28;20225;-72
2022/06/16 05:49:07;;;;;;;7.32;6.57;;;22.50;99.90;;;;;;4969878;28;20226;-72
2022/06/16 05:51:34;;;;;;;6.25;5.85;;;22.70;99.90;;;;;;4975668;28;20650;-72
2022/06/16 05:54:01;;;;;;;7.57;6.95;;;22.70;99.90;;;;;;4971339;28;20290;-73
2022/06/16 05:56:28;;;;;;;6.25;5.72;;;22.80;99.90;;;;;;4967684;28;20233;-73
2022/06/16 05:58:57;;;;;;;7.30;6.70;;;22.90;99.90;;;;;;4970444;28;20201;-73
2022/06/16 06:01:24;;;;;;;7.25;6.60;;;22.80;99.90;;;;;;4970516;28;20221;-73
2022/06/16 06:03:51;;;;;;;8.05;7.35;;;22.80;99.90;;;;;;4973435;28;20208;-72
2022/06/16 06:06:18;;;;;;;6.90;6.40;;;22.80;99.90;;;;;;4968166;28;20229;-72
2022/06/16 06:17:10;;;;;;;8.18;7.22;;;23.00;99.90;;;;;;4969812;28;20240;-72
2022/06/16 06:19:37;;;;;;;6.30;5.78;;;22.90;99.90;;;;;;4987397;28;20208;-72
2022/06/16 06:22:10;;;;;;;7.07;6.45;;;23.00;99.90;;;;;;4966194;28;20226;-72
2022/06/16 06:24:40;;;;;;;6.88;6.35;;;23.10;99.90;;;;;;4970843;28;20199;-73
2022/06/16 06:27:13;;;;;;;7.50;6.90;;;23.20;99.90;;;;;;4967653;28;20225;-72
2022/06/16 06:29:41;;;;;;;7.25;6.60;;;23.30;99.90;;;;;;4972680;28;20248;-72
2022/06/16 06:32:09;;;;;;;7.55;6.85;;;23.30;99.90;;;;;;4975783;28;20218;-73
2022/06/16 06:34:37;;;;;;;7.68;6.93;;;23.40;99.90;;;;;;4971597;28;20673;-72
2022/06/16 06:37:04;;;;;;;7.15;6.65;;;23.30;99.90;;;;;;4968686;28;20730;-73
2022/06/16 06:39:32;;;;;;;7.25;6.45;;;23.30;99.90;;;;;;4968971;28;20556;-73
2022/06/16 06:41:59;;;;;;;6.53;6.00;;;23.50;99.90;;;;;;4971517;28;20221;-72
2022/06/16 06:44:26;;;;;;;6.63;6.03;;;23.60;99.90;;;;;;4966875;28;20220;-71
2022/06/16 06:46:54;;;;;;;6.85;6.28;;;23.60;99.90;;;;;;4964666;28;20229;-72
2022/06/16 06:49:21;;;;;;;7.22;6.57;;;23.90;99.90;;;;;;4969202;28;20249;-71
2022/06/16 06:51:48;;;;;;;7.18;6.55;;;24.10;99.90;;;;;;4964558;28;20249;-72
2022/06/16 06:54:17;;;;;;;7.32;6.63;;;24.20;99.90;;;;;;4968403;28;20213;-72
2022/06/16 06:56:46;;;;;;;7.75;6.95;;;24.30;99.90;;;;;;4970219;28;20236;-72
2022/06/16 06:59:16;;;;;;;7.18;6.47;;;24.40;99.90;;;;;;4964823;28;20212;-74
2022/06/16 07:01:43;;;;;;;6.60;6.10;;;24.50;99.90;;;;;;4966911;28;20232;-73
2022/06/16 07:04:12;;;;;;;8.98;6.63;;;24.30;99.90;;;;;;4976978;28;20202;-72
2022/06/16 07:06:39;;;;;;;6.10;5.63;;;24.10;99.90;;;;;;4969333;28;20230;-72
2022/06/16 07:09:06;;;;;;;5.93;5.40;;;23.90;99.90;;;;;;4966492;28;20217;-72
2022/06/16 07:11:33;;;;;;;6.22;5.72;;;23.70;99.90;;;;;;4968526;28;20213;-72
2022/06/16 07:14:01;;;;;;;8.40;6.10;;;23.60;99.90;;;;;;4968456;28;20206;-71
2022/06/16 07:16:28;;;;;;;7.00;6.45;;;23.50;99.90;;;;;;4964658;28;20307;-70
2022/06/16 07:18:55;;;;;;;6.28;5.78;;;23.60;99.90;;;;;;4967649;28;20206;-73
2022/06/16 07:21:24;;;;;;;5.70;5.20;;;23.70;99.90;;;;;;4965243;28;20221;-73
2022/06/16 07:23:52;;;;;;;6.25;5.68;;;23.70;99.90;;;;;;4969890;28;20486;-72
2022/06/16 07:26:19;;;;;;;6.30;5.80;;;23.70;99.90;;;;;;4969877;28;20241;-73
2022/06/16 07:28:47;;;;;;;7.18;6.47;;;23.50;99.90;;;;;;4965326;28;20299;-72
2022/06/16 07:31:14;;;;;;;5.75;5.25;;;23.30;99.90;;;;;;4965359;28;20243;-72
2022/06/16 07:33:41;;;;;;;6.70;6.18;;;23.20;99.90;;;;;;4967973;28;20411;-72
2022/06/16 07:36:10;;;;;;;5.80;5.30;;;23.20;99.90;;;;;;4963277;28;20627;-72
2022/06/16 07:38:39;;;;;;;6.25;5.75;;;23.30;99.90;;;;;;4966353;28;20285;-72
2022/06/16 07:43:50;;;;;;;6.35;5.75;;;23.40;99.90;;;;;;4966933;28;20313;-71
2022/06/16 07:46:18;;;;;;;6.68;6.18;;;23.40;99.90;;;;;;4962542;28;20233;-71
2022/06/16 07:48:45;;;;;;;6.07;5.57;;;23.30;99.90;;;;;;4967963;28;20228;-72
2022/06/16 07:51:12;;;;;;;6.07;5.47;;;23.20;99.90;;;;;;4973120;28;22071;-71
2022/06/16 07:53:40;;;;;;;6.10;5.60;;;23.10;99.90;;;;;;4968351;28;20205;-73
2022/06/16 07:56:07;;;;;;;5.28;4.88;;;23.10;99.90;;;;;;4971387;28;20225;-70
2022/06/16 07:58:34;;;;;;;5.60;5.20;;;23.10;99.90;;;;;;4966004;28;20200;-74
2022/06/16 08:01:04;;;;;;;5.97;5.38;;;23.20;99.90;;;;;;4965487;28;20604;-75
2022/06/16 08:03:31;;;;;;;6.32;5.82;;;23.30;99.90;;;;;;4968660;28;20221;-74
2022/06/16 08:05:59;;;;;;;6.25;5.63;;;23.30;99.90;;;;;;4963288;28;20237;-74
2022/06/16 08:08:27;;;;;;;6.65;6.05;;;23.20;99.90;;;;;;4966466;28;20229;-74
2022/06/16 08:10:56;;;;;;;7.07;6.47;;;23.20;99.90;;;;;;4968851;28;20695;-74
2022/06/16 08:13:26;;;;;;;7.65;7.05;;;23.10;99.90;;;;;;4972728;28;20205;-73
2022/06/16 08:15:54;;;;;;;7.88;7.18;;;23.20;99.90;;;;;;4972895;28;20584;-72
2022/06/16 08:18:24;;;;;;;7.68;6.97;;;23.50;99.90;;;;;;4971823;28;20194;-73
2022/06/16 08:20:52;;;;;;;7.70;7.00;;;24.00;99.90;;;;;;4969739;28;20265;-73
2022/06/16 08:23:20;;;;;;;7.22;6.63;;;24.30;99.90;;;;;;4969556;28;20201;-73
2022/06/16 08:25:48;;;;;;;9.90;8.90;;;24.70;99.90;;;;;;4973014;28;20275;-73
2022/06/16 08:28:20;;;;;;;8.90;8.10;;;25.10;99.90;;;;;;5014674;23;20595;-85
2022/06/16 08:30:47;;;;;;;8.07;7.47;;;25.40;99.90;;;;;;4983148;28;20229;-87
2022/06/16 08:33:18;;;;;;;7.85;7.07;;;25.60;99.90;;;;;;4980467;28;20205;-87
2022/06/16 08:35:47;;;;;;;10.85;8.45;;;25.60;99.90;;;;;;4977394;28;20712;-86
2022/06/16 08:38:15;;;;;;;7.05;6.45;;;25.90;99.90;;;;;;4966016;28;20217;-87
2022/06/16 08:40:45;;;;;;;8.15;7.28;;;26.00;99.90;;;;;;4955316;28;20228;-88
2022/06/16 08:43:25;;;;;;;7.68;6.97;;;26.10;99.90;;;;;;4973772;28;20202;-87
2022/06/16 08:45:56;;;;;;;8.55;7.32;;;26.30;99.90;;;;;;4973596;28;20219;-88
2022/06/16 08:48:32;;;;;;;9.30;8.07;;;26.20;99.90;;;;;;4973348;28;20273;-89
2022/06/16 08:51:10;;;;;;;7.50;6.80;;;26.20;99.90;;;;;;4965093;28;20217;-89
2022/06/16 08:57:59;;;;;;;7.63;6.95;;;26.50;99.90;;;;;;4974394;28;20284;-89
2022/06/16 09:00:32;;;;;;;6.80;6.20;;;26.70;99.90;;;;;;4967082;28;20231;-89
2022/06/16 09:03:07;;;;;;;8.25;7.55;;;27.00;99.90;;;;;;4974640;28;20233;-89
2022/06/16 09:05:46;;;;;;;7.30;6.68;;;26.80;99.90;;;;;;4973737;28;20224;-90
2022/06/16 09:08:27;;;;;;;6.90;6.30;;;26.50;99.90;;;;;;4973736;28;20201;-89
2022/06/16 09:11:04;;;;;;;6.57;5.97;;;26.50;99.90;;;;;;4954277;29;20222;-90
2022/06/16 09:14:15;;;;;;;6.15;5.65;;;26.40;99.90;;;;;;4953736;29;20569;-90
2022/06/16 09:16:55;;;;;;;5.68;5.13;;;26.40;99.90;;;;;;4953543;29;20241;-90
2022/06/16 09:19:46;;;;;;;6.30;5.80;;;26.40;99.90;;;;;;4950036;29;20257;-90
2022/06/16 09:22:28;;;;;;;7.00;6.28;;;26.40;99.90;;;;;;4954425;29;20222;-90
2022/06/16 09:25:08;;;;;;;6.68;6.07;;;26.50;99.90;;;;;;4948182;29;20211;-90
2022/06/16 09:27:42;;;;;;;6.90;6.13;;;26.60;99.90;;;;;;4954467;29;20225;-89
2022/06/16 09:30:16;;;;;;;6.93;6.10;;;26.90;99.90;;;;;;4955010;29;20221;-90
2022/06/16 09:32:50;;;;;;;6.93;6.13;;;27.10;99.90;;;;;;4952051;29;20241;-89
2022/06/16 09:35:21;;;;;;;6.95;6.35;;;27.50;99.90;;;;;;4954345;29;20205;-91
2022/06/16 09:37:52;;;;;;;7.65;6.95;;;27.60;99.90;;;;;;4953313;29;20222;-90
2022/06/16 09:40:24;;;;;;;7.03;6.43;;;27.30;99.90;;;;;;4954639;29;20199;-91
2022/06/16 09:42:57;;;;;;;7.93;7.10;;;27.10;99.90;;;;;;4948038;29;20253;-91
2022/06/16 09:45:28;;;;;;;7.93;7.13;;;26.80;99.90;;;;;;4951228;29;20860;-90
2022/06/16 09:48:04;;;;;;;8.50;7.70;;;26.60;99.90;;;;;;4953750;29;20226;-91
2022/06/16 09:50:41;;;;;;;6.60;6.10;;;26.50;99.90;;;;;;4954420;29;20285;-91
2022/06/16 09:53:15;;;;;;;6.95;6.32;;;26.70;99.90;;;;;;4953879;29;20225;-90
2022/06/16 09:55:48;;;;;;;6.95;6.25;;;27.10;99.90;;;;;;4946454;29;20202;-90
2022/06/16 09:58:19;;;;;;;6.97;6.38;;;27.20;99.90;;;;;;4953643;29;20229;-90
2022/06/16 10:00:47;;;;;;;13.07;6.93;;;27.20;99.90;;;;;;4953537;29;20210;-91
2022/06/16 10:03:25;;;;;;;7.70;6.95;;;27.00;99.90;;;;;;4953618;29;20222;-91
2022/06/16 10:06:09;;;;;;;8.35;7.03;;;26.80;99.90;;;;;;4953545;29;20198;-91
2022/06/16 10:08:46;;;;;;;7.85;6.00;;;26.70;99.90;;;;;;4953182;29;20218;-89
2022/06/16 10:11:20;;;;;;;7.60;6.28;;;26.70;99.90;;;;;;4951411;29;20206;-83
2022/06/16 10:13:54;;;;;;;7.63;6.25;;;26.60;99.90;;;;;;4949953;29;20226;-83
2022/06/16 10:16:32;;;;;;;7.28;6.68;;;26.60;99.90;;;;;;4948814;29;20221;-84
2022/06/16 10:19:00;;;;;;;7.00;6.40;;;26.70;99.90;;;;;;4950491;29;20218;-83
2022/06/16 10:21:27;;;;;;;7.85;6.95;;;26.40;99.90;;;;;;4950194;29;20346;-84
2022/06/16 10:23:59;;;;;;;7.93;7.25;;;26.20;99.90;;;;;;4932995;29;20230;-83
2022/06/16 10:26:26;;;;;;;8.50;7.63;;;25.90;99.90;;;;;;4949255;29;20199;-83
2022/06/16 10:29:05;;;;;;;7.50;6.90;;;25.60;99.90;;;;;;4949895;29;20725;-83
2022/06/16 10:31:40;;;;;;;6.30;5.80;;;25.50;99.90;;;;;;4950618;29;20202;-83
2022/06/16 10:34:30;;;;;;;6.43;5.93;;;25.40;99.90;;;;;;4949969;29;20225;-82
2022/06/16 10:37:10;;;;;;;6.57;6.07;;;25.30;99.90;;;;;;4947887;29;20573;-84
2022/06/16 10:39:44;;;;;;;6.78;6.18;;;25.40;99.90;;;;;;4949830;29;20214;-83
2022/06/16 10:42:19;;;;;;;7.32;5.80;;;25.50;99.90;;;;;;4950567;29;20194;-83
2022/06/16 10:44:54;;;;;;;5.35;5.00;;;25.60;99.90;;;;;;4946623;29;20217;-83
2022/06/16 10:47:23;;;;;;;6.13;5.72;;;25.70;99.90;;;;;;4949164;29;20204;-85
2022/06/16 10:49:52;;;;;;;6.68;6.15;;;25.90;99.90;;;;;;4946489;29;20217;-84
2022/06/16 10:52:27;;;;;;;6.72;6.22;;;26.10;99.90;;;;;;4948915;29;20198;-85
2022/06/16 10:55:02;;;;;;;7.38;6.72;;;26.20;99.90;;;;;;4946669;29;20337;-84
2022/06/16 10:57:32;;;;;;;7.43;6.80;;;26.20;99.90;;;;;;4950670;29;20197;-85
2022/06/16 11:00:07;;;;;;;8.57;7.68;;;26.00;99.90;;;;;;4947576;28;20219;-86
2022/06/16 11:02:36;;;;;;;7.53;7.00;;;25.70;99.90;;;;;;4949706;29;20205;-86
2022/06/16 11:05:11;;;;;;;8.80;7.93;;;25.50;99.90;;;;;;4948967;29;20218;-81
2022/06/16 11:07:41;;;;;;;6.82;5.93;;;25.40;99.90;;;;;;4948911;29;20198;-83
2022/06/16 11:10:11;;;;;;;6.97;6.43;;;25.40;99.90;;;;;;4949370;29;20230;-85
2022/06/16 11:12:42;;;;;;;6.35;5.78;;;25.40;99.90;;;;;;4950089;29;20226;-84
2022/06/16 11:15:22;;;;;;;6.97;5.95;;;25.50;99.90;;;;;;4950058;29;20558;-85
2022/06/16 11:17:54;;;;;;;6.18;5.68;;;25.50;99.90;;;;;;4944920;29;20594;-81
2022/06/16 11:20:33;;;;;;;6.97;6.28;;;25.60;99.90;;;;;;4948205;29;20198;-79
2022/06/16 11:23:00;;;;;;;6.45;5.85;;;25.70;99.90;;;;;;4947436;29;20573;-82
2022/06/16 11:25:32;;;;;;;6.20;5.65;;;25.70;99.90;;;;;;4949447;29;20792;-85
2022/06/16 11:28:01;;;;;;;7.28;6.63;;;25.70;99.90;;;;;;4949196;29;20210;-82
2022/06/16 11:30:35;;;;;;;7.40;6.40;;;25.70;99.90;;;;;;4949841;29;20226;-83
2022/06/16 11:33:04;;;;;;;6.03;5.47;;;25.70;99.90;;;;;;4947385;29;20210;-82
2022/06/16 11:35:40;;;;;;;6.18;5.45;;;25.70;99.90;;;;;;4949325;29;20209;-82
2022/06/16 11:38:17;;;;;;;5.43;5.03;;;25.80;99.90;;;;;;4949321;29;20233;-84
2022/06/16 11:40:50;;;;;;;5.72;5.22;;;26.00;99.90;;;;;;4949650;29;20194;-84
2022/06/16 11:43:48;;;;;;;5.47;5.07;;;26.10;99.90;;;;;;4949003;29;20225;-82
2022/06/16 11:46:22;;;;;;;4.93;4.63;;;26.40;99.90;;;;;;4946437;28;20217;-83
2022/06/16 11:49:05;;;;;;;5.28;4.78;;;26.70;99.90;;;;;;4945793;29;20248;-83
2022/06/16 11:51:44;;;;;;;5.20;4.80;;;27.00;99.90;;;;;;4947881;29;20237;-84
2022/06/16 11:54:25;;;;;;;8.40;6.55;;;27.20;99.90;;;;;;4947990;29;20221;-83
2022/06/16 11:56:57;;;;;;;5.40;5.00;;;27.40;99.90;;;;;;4946209;29;20265;-85
2022/06/16 11:59:47;;;;;;;6.10;5.40;;;27.60;99.90;;;;;;4947280;29;20222;-84
2022/06/16 12:02:38;;;;;;;5.15;4.75;;;28.00;99.90;;;;;;4935515;29;20225;-84
2022/06/16 12:05:17;;;;;;;5.00;4.50;;;28.60;99.90;;;;;;4945833;28;20697;-83
2022/06/16 12:08:15;;;;;;;4.80;4.05;;;29.10;99.90;;;;;;4942830;28;20739;-85
2022/06/16 12:10:47;;;;;;;5.45;4.72;;;29.50;99.90;;;;;;4938135;28;20223;-84
2022/06/16 12:13:25;;;;;;;4.40;3.97;;;29.50;99.90;;;;;;4946405;28;20237;-84
2022/06/16 12:15:58;;;;;;;4.50;4.10;;;29.70;99.90;;;;;;4944157;28;20225;-85
2022/06/16 12:18:51;;;;;;;5.72;4.45;;;29.40;99.90;;;;;;4941926;28;20764;-86
2022/06/16 12:21:25;;;;;;;5.32;3.90;;;29.10;99.90;;;;;;4944977;29;20218;-84
2022/06/16 12:24:03;;;;;;;7.22;4.40;;;28.70;99.90;;;;;;4945120;28;20708;-85
2022/06/16 12:26:35;;;;;;;4.97;4.00;;;28.70;99.90;;;;;;4942902;28;20312;-86
2022/06/16 12:29:10;;;;;;;5.20;4.22;;;28.90;99.90;;;;;;4942166;28;20225;-86
2022/06/16 12:31:49;;;;;;;5.18;3.97;;;29.00;99.90;;;;;;4942543;28;20227;-86
2022/06/16 12:34:24;;;;;;;5.28;3.80;;;29.10;99.90;;;;;;4941495;28;20210;-87
2022/06/16 12:36:55;;;;;;;3.78;3.47;;;29.20;99.90;;;;;;4941166;28;20234;-86
2022/06/16 12:39:34;;;;;;;6.18;4.85;;;29.30;99.90;;;;;;4944705;28;20202;-87
2022/06/16 12:42:06;;;;;;;6.05;4.18;;;29.40;99.90;;;;;;4944240;28;20221;-87
2022/06/16 12:44:40;;;;;;;4.57;4.15;;;29.40;99.90;;;;;;4941851;28;20300;-86
2022/06/16 12:47:13;;;;;;;6.45;4.28;;;29.40;99.90;;;;;;4941092;28;20222;-84
2022/06/16 12:49:46;;;;;;;6.03;4.00;;;29.40;99.90;;;;;;4943517;28;20697;-86
2022/06/16 12:52:21;;;;;;;4.88;3.72;;;29.50;99.90;;;;;;4944511;28;20256;-85
2022/06/16 12:55:00;;;;;;;6.68;3.35;;;29.80;99.90;;;;;;4944620;29;20229;-84
2022/06/16 12:57:33;;;;;;;3.65;3.08;;;30.10;99.90;;;;;;4941125;28;20974;-83
2022/06/16 13:00:04;;;;;;;3.17;2.95;;;30.30;99.90;;;;;;4940591;28;20202;-85
2022/06/16 13:02:36;;;;;;;3.58;3.28;;;30.30;99.90;;;;;;4946686;28;20237;-85
2022/06/16 13:05:09;;;;;;;4.95;3.25;;;30.30;99.90;;;;;;4944577;28;20298;-87
2022/06/16 13:07:38;;;;;;;5.68;3.72;;;30.20;99.90;;;;;;4943816;28;20591;-86
2022/06/16 13:10:10;;;;;;;4.15;3.75;;;29.70;99.90;;;;;;4944414;28;20257;-87
2022/06/16 13:12:43;;;;;;;4.28;3.50;;;29.50;99.90;;;;;;4944658;28;20228;-86
2022/06/16 13:15:13;;;;;;;4.05;3.28;;;29.40;99.90;;;;;;4947507;29;20198;-85
2022/06/16 13:17:50;;;;;;;4.78;3.83;;;29.60;99.90;;;;;;4941425;28;20226;-86
2022/06/16 13:20:20;;;;;;;4.15;3.78;;;29.80;99.90;;;;;;4947329;29;20252;-85
2022/06/16 13:22:55;;;;;;;3.80;3.40;;;29.80;99.90;;;;;;4944357;29;20233;-86
2022/06/16 13:25:42;;;;;;;5.88;4.18;;;29.60;99.90;;;;;;4940283;29;20202;-86
2022/06/16 13:28:16;;;;;;;4.15;3.78;;;29.30;99.90;;;;;;4944188;28;20341;-86
2022/06/16 13:31:13;;;;;;;4.28;3.60;;;29.00;99.90;;;;;;4941605;28;20313;-87
2022/06/16 13:33:48;;;;;;;5.85;4.03;;;28.90;99.90;;;;;;4940751;28;20230;-87
2022/06/16 13:36:41;;;;;;;4.38;3.97;;;28.80;99.90;;;;;;4945758;28;20212;-85
2022/06/16 13:39:10;;;;;;;3.60;3.30;;;28.70;99.90;;;;;;4943112;28;20226;-86
2022/06/16 13:41:41;;;;;;;4.47;3.53;;;28.70;99.90;;;;;;4944883;28;20201;-85
2022/06/16 13:44:23;;;;;;;3.90;3.60;;;28.70;99.90;;;;;;4943412;29;20597;-84
2022/06/16 13:47:15;;;;;;;5.40;3.92;;;28.50;99.90;;;;;;4943395;28;20206;-86
2022/06/16 13:49:58;;;;;;;3.47;3.10;;;28.50;99.90;;;;;;4944476;29;20218;-87
2022/06/16 13:52:27;;;;;;;4.25;3.85;;;28.30;99.90;;;;;;4943313;28;20225;-85
2022/06/16 13:55:28;;;;;;;3.67;3.38;;;28.20;99.90;;;;;;4948899;28;20313;-86
2022/06/16 13:58:26;;;;;;;3.85;3.55;;;28.10;99.90;;;;;;4930606;28;20226;-87
2022/06/16 14:01:13;;;;;;;4.47;3.47;;;28.00;99.90;;;;;;4909649;28;20222;-87
2022/06/16 14:04:01;;;;;;;3.70;3.20;;;28.00;99.90;;;;;;4950003;28;20249;-86
2022/06/16 14:06:32;;;;;;;3.47;3.10;;;28.10;99.90;;;;;;4949438;29;20241;-88
2022/06/16 14:09:02;;;;;;;3.50;3.20;;;28.20;99.90;;;;;;4949914;28;20222;-88
2022/06/16 14:11:32;;;;;;;3.30;3.10;;;28.30;99.90;;;;;;4944277;29;20297;-89
2022/06/16 14:14:19;;;;;;;3.65;3.00;;;28.40;99.90;;;;;;4942468;29;20710;-88